sensor_id;sensor_type;location;lat;lon;timestamp;pressure;altitude;pressure_sealevel;temperature;humidity
72465;BME280;60471;52.150;4.508;2023-04-03T00:00:45;102825.50;;;6.37;59.44
72465;BME280;60471;52.150;4.508;2023-04-03T00:03:12;102832.50;;;6.43;59.13
72465;BME280;60471;52.150;4.508;2023-04-03T00:05:38;102838.63;;;6.48;58.96
72465;BME280;60471;52.150;4.508;2023-04-03T00:08:04;102840.38;;;6.43;58.81
72465;BME280;60471;52.150;4.508;2023-04-03T00:10:34;102846.50;;;6.45;59.44
72465;BME280;60471;52.150;4.508;2023-04-03T00:13:00;102842.97;;;6.38;58.72
72465;BME280;60471;52.150;4.508;2023-04-03T00:15:26;102839.50;;;6.41;59.21
72465;BME280;60471;52.150;4.508;2023-04-03T00:17:52;102836.00;;;6.42;58.79
72465;BME280;60471;52.150;4.508;2023-04-03T00:20:19;102832.50;;;6.46;58.75
72465;BME280;60471;52.150;4.508;2023-04-03T00:22:46;102837.75;;;6.43;58.78
72465;BME280;60471;52.150;4.508;2023-04-03T00:25:12;102834.25;;;6.33;58.59
72465;BME280;60471;52.150;4.508;2023-04-03T00:27:39;102830.72;;;6.22;59.13
72465;BME280;60471;52.150;4.508;2023-04-03T00:30:08;102833.34;;;6.19;59.70
72465;BME280;60471;52.150;4.508;2023-04-03T00:32:38;102835.94;;;6.10;59.81
72465;BME280;60471;52.150;4.508;2023-04-03T00:35:05;102839.47;;;6.35;59.30
72465;BME280;60471;52.150;4.508;2023-04-03T00:37:32;102835.13;;;6.32;58.84
72465;BME280;60471;52.150;4.508;2023-04-03T00:39:58;102835.97;;;6.19;59.41
72465;BME280;60471;52.150;4.508;2023-04-03T00:42:25;102834.19;;;6.14;59.31
72465;BME280;60471;52.150;4.508;2023-04-03T00:47:24;102838.59;;;6.22;59.26
72465;BME280;60471;52.150;4.508;2023-04-03T00:49:51;102844.66;;;6.14;59.68
72465;BME280;60471;52.150;4.508;2023-04-03T00:52:21;102839.44;;;6.12;59.78
72465;BME280;60471;52.150;4.508;2023-04-03T00:54:57;102841.16;;;6.05;60.10
72465;BME280;60471;52.150;4.508;2023-04-03T00:57:28;102851.63;;;6.05;60.31
72465;BME280;60471;52.150;4.508;2023-04-03T01:00:05;102848.13;;;6.05;60.20
72465;BME280;60471;52.150;4.508;2023-04-03T01:02:37;102849.88;;;6.03;60.44
72465;BME280;60471;52.150;4.508;2023-04-03T01:05:06;102858.63;;;6.03;60.33
72465;BME280;60471;52.150;4.508;2023-04-03T01:07:34;102855.97;;;5.91;61.07
72465;BME280;60471;52.150;4.508;2023-04-03T01:10:06;102852.50;;;5.98;60.88
72465;BME280;60471;52.150;4.508;2023-04-03T01:12:39;102855.00;;;5.80;61.43
72465;BME280;60471;52.150;4.508;2023-04-03T01:15:07;102853.31;;;5.87;60.94
72465;BME280;60471;52.150;4.508;2023-04-03T01:17:52;102855.84;;;5.73;61.70
72465;BME280;60471;52.150;4.508;2023-04-03T01:28:09;102861.13;;;5.80;61.29
72465;BME280;60471;52.150;4.508;2023-04-03T01:31:02;102854.09;;;5.75;61.74
72465;BME280;60471;52.150;4.508;2023-04-03T01:33:38;102868.88;;;5.62;61.37
72465;BME280;60471;52.150;4.508;2023-04-03T01:36:05;102859.28;;;5.60;61.57
72465;BME280;60471;52.150;4.508;2023-04-03T01:38:31;102861.81;;;5.43;62.55
72465;BME280;60471;52.150;4.508;2023-04-03T01:40:58;102857.41;;;5.42;62.63
72465;BME280;60471;52.150;4.508;2023-04-03T01:43:24;102859.22;;;5.49;62.71
72465;BME280;60471;52.150;4.508;2023-04-03T01:45:50;102856.59;;;5.47;62.91
72465;BME280;60471;52.150;4.508;2023-04-03T01:48:18;102850.53;;;5.55;62.48
72465;BME280;60471;52.150;4.508;2023-04-03T01:50:44;102858.34;;;5.50;62.37
72465;BME280;60471;52.150;4.508;2023-04-03T01:53:11;102855.78;;;5.55;62.71
72465;BME280;60471;52.150;4.508;2023-04-03T01:55:37;102857.47;;;5.51;62.63
72465;BME280;60471;52.150;4.508;2023-04-03T01:58:04;102855.81;;;5.65;61.91
72465;BME280;60471;52.150;4.508;2023-04-03T02:00:30;102864.50;;;5.57;62.47
72465;BME280;60471;52.150;4.508;2023-04-03T02:02:56;102866.19;;;5.44;62.78
72465;BME280;60471;52.150;4.508;2023-04-03T02:05:22;102867.06;;;5.50;62.54
72465;BME280;60471;52.150;4.508;2023-04-03T02:07:49;102868.00;;;5.59;62.37
72465;BME280;60471;52.150;4.508;2023-04-03T02:10:15;102869.59;;;5.32;63.41
72465;BME280;60471;52.150;4.508;2023-04-03T02:12:41;102867.88;;;5.36;63.17
72465;BME280;60471;52.150;4.508;2023-04-03T02:15:08;102871.28;;;5.21;63.87
72465;BME280;60471;52.150;4.508;2023-04-03T02:17:35;102872.25;;;5.40;63.20
72465;BME280;60471;52.150;4.508;2023-04-03T02:20:02;102875.72;;;5.36;63.30
72465;BME280;60471;52.150;4.508;2023-04-03T02:22:29;102874.78;;;5.31;64.07
72465;BME280;60471;52.150;4.508;2023-04-03T02:24:56;102885.22;;;5.21;64.04
72465;BME280;60471;52.150;4.508;2023-04-03T02:27:22;102880.00;;;5.24;64.59
72465;BME280;60471;52.150;4.508;2023-04-03T02:29:48;102885.28;;;5.31;63.76
72465;BME280;60471;52.150;4.508;2023-04-03T02:32:14;102884.31;;;5.18;64.13
72465;BME280;60471;52.150;4.508;2023-04-03T02:34:40;102888.56;;;5.04;64.64
72465;BME280;60471;52.150;4.508;2023-04-03T02:37:07;102886.91;;;5.13;64.60
72465;BME280;60471;52.150;4.508;2023-04-03T02:39:34;102885.97;;;5.10;64.60
72465;BME280;60471;52.150;4.508;2023-04-03T02:42:00;102889.44;;;5.04;64.99
72465;BME280;60471;52.150;4.508;2023-04-03T02:44:27;102888.66;;;5.11;65.26
72465;BME280;60471;52.150;4.508;2023-04-03T02:46:56;102889.44;;;5.04;65.27
72465;BME280;60471;52.150;4.508;2023-04-03T02:49:22;102885.09;;;5.05;65.90
72465;BME280;60471;52.150;4.508;2023-04-03T02:51:48;102893.81;;;5.04;65.51
72465;BME280;60471;52.150;4.508;2023-04-03T02:54:14;102886.91;;;5.12;65.34
72465;BME280;60471;52.150;4.508;2023-04-03T02:56:41;102897.31;;;5.07;65.95
72465;BME280;60471;52.150;4.508;2023-04-03T02:59:07;102889.53;;;5.12;66.02
72465;BME280;60471;52.150;4.508;2023-04-03T03:01:34;102891.19;;;5.01;66.24
72465;BME280;60471;52.150;4.508;2023-04-03T03:04:02;102887.66;;;4.99;65.98
72465;BME280;60471;52.150;4.508;2023-04-03T03:06:28;102887.69;;;5.03;66.09
72465;BME280;60471;52.150;4.508;2023-04-03T03:08:55;102897.22;;;4.95;65.92
72465;BME280;60471;52.150;4.508;2023-04-03T03:11:21;102891.09;;;4.90;66.52
72465;BME280;60471;52.150;4.508;2023-04-03T03:13:47;102892.75;;;4.83;66.92
72465;BME280;60471;52.150;4.508;2023-04-03T03:16:14;102890.16;;;4.86;66.68
72465;BME280;60471;52.150;4.508;2023-04-03T03:18:40;102895.38;;;4.85;66.31
72465;BME280;60471;52.150;4.508;2023-04-03T03:21:06;102892.78;;;4.86;65.95
72465;BME280;60471;52.150;4.508;2023-04-03T03:23:32;102901.38;;;4.73;67.29
72465;BME280;60471;52.150;4.508;2023-04-03T03:26:02;102897.19;;;4.89;66.57
72465;BME280;60471;52.150;4.508;2023-04-03T03:28:30;102901.56;;;4.90;67.14
72465;BME280;60471;52.150;4.508;2023-04-03T03:30:58;102903.22;;;4.85;66.59
72465;BME280;60471;52.150;4.508;2023-04-03T03:33:25;102898.84;;;4.78;67.02
72465;BME280;60471;52.150;4.508;2023-04-03T03:35:53;102901.38;;;4.73;66.93
72465;BME280;60471;52.150;4.508;2023-04-03T03:38:21;102903.16;;;4.77;67.55
72465;BME280;60471;52.150;4.508;2023-04-03T03:40:48;102910.72;;;4.45;67.63
72465;BME280;60471;52.150;4.508;2023-04-03T03:43:16;102911.63;;;4.52;68.04
72465;BME280;60471;52.150;4.508;2023-04-03T03:45:43;102917.84;;;4.63;67.85
72465;BME280;60471;52.150;4.508;2023-04-03T03:48:09;102914.38;;;4.64;67.40
72465;BME280;60471;52.150;4.508;2023-04-03T03:50:36;102918.56;;;4.48;67.69
72465;BME280;60471;52.150;4.508;2023-04-03T03:53:02;102912.59;;;4.60;68.29
72465;BME280;60471;52.150;4.508;2023-04-03T03:55:28;102909.94;;;4.57;67.61
72465;BME280;60471;52.150;4.508;2023-04-03T03:57:55;102911.53;;;4.43;67.72
72465;BME280;60471;52.150;4.508;2023-04-03T04:00:21;102902.78;;;4.39;68.32
72465;BME280;60471;52.150;4.508;2023-04-03T04:02:47;102908.88;;;4.38;69.01
72465;BME280;60471;52.150;4.508;2023-04-03T04:05:14;102908.91;;;4.44;68.89
72465;BME280;60471;52.150;4.508;2023-04-03T04:07:40;102914.25;;;4.52;68.52
72465;BME280;60471;52.150;4.508;2023-04-03T04:10:06;102904.66;;;4.51;68.03
72465;BME280;60471;52.150;4.508;2023-04-03T04:12:33;102915.00;;;4.43;68.45
72465;BME280;60471;52.150;4.508;2023-04-03T04:15:02;102909.66;;;4.31;68.67
72465;BME280;60471;52.150;4.508;2023-04-03T04:17:29;102909.66;;;4.29;69.43
72465;BME280;60471;52.150;4.508;2023-04-03T04:19:55;102921.13;;;4.44;69.56
72465;BME280;60471;52.150;4.508;2023-04-03T04:22:21;102920.19;;;4.35;69.41
72465;BME280;60471;52.150;4.508;2023-04-03T04:24:48;102919.97;;;4.17;70.00
72465;BME280;60471;52.150;4.508;2023-04-03T04:27:14;102923.53;;;4.24;70.03
72465;BME280;60471;52.150;4.508;2023-04-03T04:29:41;102924.38;;;4.23;69.87
72465;BME280;60471;52.150;4.508;2023-04-03T04:32:07;102923.56;;;4.27;70.15
72465;BME280;60471;52.150;4.508;2023-04-03T04:34:34;102922.69;;;4.28;69.38
72465;BME280;60471;52.150;4.508;2023-04-03T04:37:00;102926.06;;;4.18;70.43
72465;BME280;60471;52.150;4.508;2023-04-03T04:39:27;102931.38;;;4.24;69.96
72465;BME280;60471;52.150;4.508;2023-04-03T04:41:53;102922.72;;;4.32;69.04
72465;BME280;60471;52.150;4.508;2023-04-03T04:44:19;102934.97;;;4.35;69.17
72465;BME280;60471;52.150;4.508;2023-04-03T04:46:48;102931.38;;;4.25;69.80
72465;BME280;60471;52.150;4.508;2023-04-03T04:49:14;102927.75;;;4.13;70.18
72465;BME280;60471;52.150;4.508;2023-04-03T04:51:40;102931.19;;;4.12;70.29
72465;BME280;60471;52.150;4.508;2023-04-03T04:54:06;102935.53;;;4.11;70.63
72465;BME280;60471;52.150;4.508;2023-04-03T04:56:32;102938.25;;;4.17;70.64
72465;BME280;60471;52.150;4.508;2023-04-03T04:58:59;102936.41;;;4.10;70.84
72465;BME280;60471;52.150;4.508;2023-04-03T05:01:25;102935.59;;;4.13;71.28
72465;BME280;60471;52.150;4.508;2023-04-03T05:03:51;102933.13;;;4.26;71.11
72465;BME280;60471;52.150;4.508;2023-04-03T05:06:17;102935.75;;;4.28;70.35
72465;BME280;60471;52.150;4.508;2023-04-03T05:08:43;102937.41;;;4.21;70.91
72465;BME280;60471;52.150;4.508;2023-04-03T05:11:10;102939.97;;;4.17;71.02
72465;BME280;60471;52.150;4.508;2023-04-03T05:13:36;102947.78;;;4.14;71.12
72465;BME280;60471;52.150;4.508;2023-04-03T05:16:02;102942.59;;;4.18;70.90
72465;BME280;60471;52.150;4.508;2023-04-03T05:18:28;102944.38;;;4.21;71.09
72465;BME280;60471;52.150;4.508;2023-04-03T05:20:55;102941.00;;;4.31;70.64
72465;BME280;60471;52.150;4.508;2023-04-03T05:23:21;102947.97;;;4.29;70.77
72465;BME280;60471;52.150;4.508;2023-04-03T05:25:47;102953.41;;;4.46;70.56
72465;BME280;60471;52.150;4.508;2023-04-03T05:28:14;102952.53;;;4.45;70.01
72465;BME280;60471;52.150;4.508;2023-04-03T05:30:40;102961.13;;;4.36;70.50
72465;BME280;60471;52.150;4.508;2023-04-03T05:33:07;102957.66;;;4.36;70.50
72465;BME280;60471;52.150;4.508;2023-04-03T05:35:35;102965.53;;;4.41;70.24
72465;BME280;60471;52.150;4.508;2023-04-03T05:38:05;102954.91;;;4.27;70.16
72465;BME280;60471;52.150;4.508;2023-04-03T05:40:31;102956.78;;;4.39;70.43
72465;BME280;60471;52.150;4.508;2023-04-03T05:42:57;102954.22;;;4.42;70.81
72465;BME280;60471;52.150;4.508;2023-04-03T05:45:23;102962.16;;;4.49;70.42
72465;BME280;60471;52.150;4.508;2023-04-03T05:47:50;102967.50;;;4.61;69.97
72465;BME280;60471;52.150;4.508;2023-04-03T05:50:16;102957.97;;;4.66;69.78
72465;BME280;60471;52.150;4.508;2023-04-03T05:52:44;102959.81;;;4.77;69.79
72465;BME280;60471;52.150;4.508;2023-04-03T05:55:13;102959.75;;;4.71;69.27
72465;BME280;60471;52.150;4.508;2023-04-03T05:57:39;102959.97;;;4.89;69.08
72465;BME280;60471;52.150;4.508;2023-04-03T06:00:07;102966.09;;;4.92;68.61
72465;BME280;60471;52.150;4.508;2023-04-03T06:02:35;102967.94;;;5.06;68.01
72465;BME280;60471;52.150;4.508;2023-04-03T06:05:02;102964.66;;;5.28;67.83
72465;BME280;60471;52.150;4.508;2023-04-03T06:07:28;102972.59;;;5.37;66.87
72465;BME280;60471;52.150;4.508;2023-04-03T06:09:56;102969.06;;;5.34;66.45
72465;BME280;60471;52.150;4.508;2023-04-03T06:12:23;102982.34;;;5.61;65.94
72465;BME280;60471;52.150;4.508;2023-04-03T06:14:50;102974.50;;;5.58;66.02
72465;BME280;60471;52.150;4.508;2023-04-03T06:17:17;102976.38;;;5.79;65.68
72465;BME280;60471;52.150;4.508;2023-04-03T06:19:44;102984.16;;;5.67;65.19
72465;BME280;60471;52.150;4.508;2023-04-03T06:22:11;102987.66;;;5.66;65.15
72465;BME280;60471;52.150;4.508;2023-04-03T06:24:38;102988.47;;;5.63;65.88
72465;BME280;60471;52.150;4.508;2023-04-03T06:27:04;102987.75;;;5.82;64.61
72465;BME280;60471;52.150;4.508;2023-04-03T06:29:31;102992.16;;;5.87;65.25
72465;BME280;60471;52.150;4.508;2023-04-03T06:31:57;102988.72;;;5.92;64.29
72465;BME280;60471;52.150;4.508;2023-04-03T06:34:23;102988.72;;;5.94;64.35
72465;BME280;60471;52.150;4.508;2023-04-03T06:36:50;102985.31;;;6.08;64.10
72465;BME280;60471;52.150;4.508;2023-04-03T06:39:18;102987.94;;;6.08;63.38
72465;BME280;60471;52.150;4.508;2023-04-03T06:41:46;102985.34;;;6.13;63.56
72465;BME280;60471;52.150;4.508;2023-04-03T06:44:13;102993.13;;;6.01;63.26
72465;BME280;60471;52.150;4.508;2023-04-03T06:46:42;102989.66;;;6.05;63.84
72465;BME280;60471;52.150;4.508;2023-04-03T06:49:09;102991.50;;;6.21;63.49
72465;BME280;60471;52.150;4.508;2023-04-03T06:51:36;102994.16;;;6.35;62.85
72465;BME280;60471;52.150;4.508;2023-04-03T06:54:04;102991.50;;;6.26;62.97
72465;BME280;60471;52.150;4.508;2023-04-03T06:56:32;102989.84;;;6.46;62.23
72465;BME280;60471;52.150;4.508;2023-04-03T06:58:58;102989.00;;;6.58;61.91
72465;BME280;60471;52.150;4.508;2023-04-03T07:01:26;103001.25;;;6.53;61.83
72465;BME280;60471;52.150;4.508;2023-04-03T07:03:54;103001.22;;;6.48;62.27
72465;BME280;60471;52.150;4.508;2023-04-03T07:06:21;103001.28;;;6.65;62.51
72465;BME280;60471;52.150;4.508;2023-04-03T07:08:47;103003.06;;;6.78;61.07
72465;BME280;60471;52.150;4.508;2023-04-03T07:11:15;102995.13;;;6.58;61.98
72465;BME280;60471;52.150;4.508;2023-04-03T07:13:44;103003.91;;;6.69;61.81
72465;BME280;60471;52.150;4.508;2023-04-03T07:16:10;103017.94;;;6.78;61.18
72465;BME280;60471;52.150;4.508;2023-04-03T07:18:36;103017.06;;;6.79;61.28
72465;BME280;60471;52.150;4.508;2023-04-03T07:21:03;103023.19;;;6.81;61.16
72465;BME280;60471;52.150;4.508;2023-04-03T07:23:30;103024.09;;;6.89;61.22
72465;BME280;60471;52.150;4.508;2023-04-03T07:25:56;103028.44;;;6.78;62.55
72465;BME280;60471;52.150;4.508;2023-04-03T07:28:23;103026.75;;;7.06;61.03
72465;BME280;60471;52.150;4.508;2023-04-03T07:30:54;103027.59;;;7.00;60.93
72465;BME280;60471;52.150;4.508;2023-04-03T07:33:30;103023.19;;;6.81;60.49
72465;BME280;60471;52.150;4.508;2023-04-03T07:35:57;103026.72;;;7.04;60.77
72465;BME280;60471;52.150;4.508;2023-04-03T07:38:23;103034.63;;;7.09;60.49
72465;BME280;60471;52.150;4.508;2023-04-03T07:40:50;103025.03;;;7.34;60.32
72465;BME280;60471;52.150;4.508;2023-04-03T07:43:19;103035.53;;;7.29;59.41
72465;BME280;60471;52.150;4.508;2023-04-03T07:45:48;103033.75;;;7.25;59.38
72465;BME280;60471;52.150;4.508;2023-04-03T07:48:19;103034.66;;;7.18;59.88
72465;BME280;60471;52.150;4.508;2023-04-03T07:50:46;103033.78;;;7.42;59.19
72465;BME280;60471;52.150;4.508;2023-04-03T07:53:13;103033.75;;;7.25;57.38
72465;BME280;60471;52.150;4.508;2023-04-03T07:55:40;103032.00;;;7.27;56.73
72465;BME280;60471;52.150;4.508;2023-04-03T07:58:10;103038.13;;;7.14;57.44
72465;BME280;60471;52.150;4.508;2023-04-03T08:00:37;103050.41;;;7.24;56.50
72465;BME280;60471;52.150;4.508;2023-04-03T08:03:04;103043.41;;;7.44;56.75
72465;BME280;60471;52.150;4.508;2023-04-03T08:05:37;103049.53;;;7.77;56.88
72465;BME280;60471;52.150;4.508;2023-04-03T08:08:04;103056.53;;;7.99;55.75
72465;BME280;60471;52.150;4.508;2023-04-03T08:10:32;103044.28;;;7.95;55.43
72465;BME280;60471;52.150;4.508;2023-04-03T08:13:00;103054.78;;;8.04;55.14
72465;BME280;60471;52.150;4.508;2023-04-03T08:15:26;103060.00;;;8.13;54.84
72465;BME280;60471;52.150;4.508;2023-04-03T08:17:53;103050.38;;;8.09;55.42
72465;BME280;60471;52.150;4.508;2023-04-03T08:20:20;103067.91;;;8.06;55.19
72465;BME280;60471;52.150;4.508;2023-04-03T08:22:47;103052.09;;;8.26;54.96
72465;BME280;60471;52.150;4.508;2023-04-03T08:25:13;103060.06;;;7.68;55.75
72465;BME280;60471;52.150;4.508;2023-04-03T08:27:40;103059.19;;;7.73;56.00
72465;BME280;60471;52.150;4.508;2023-04-03T08:30:07;103053.00;;;8.08;55.41
72465;BME280;60471;52.150;4.508;2023-04-03T08:32:34;103054.75;;;8.12;55.16
72465;BME280;60471;52.150;4.508;2023-04-03T08:35:03;103063.50;;;8.38;54.63
72465;BME280;60471;52.150;4.508;2023-04-03T08:37:30;103061.69;;;8.33;53.80
72465;BME280;60471;52.150;4.508;2023-04-03T08:39:57;103066.97;;;8.31;53.39
72465;BME280;60471;52.150;4.508;2023-04-03T08:42:38;103071.31;;;8.52;52.92
72465;BME280;60471;52.150;4.508;2023-04-03T08:48:15;103079.16;;;8.66;52.79
72465;BME280;60471;52.150;4.508;2023-04-03T08:50:56;103073.91;;;8.70;52.30
72465;BME280;60471;52.150;4.508;2023-04-03T08:53:28;103067.59;;;8.99;52.15
72465;BME280;60471;52.150;4.508;2023-04-03T08:56:03;103071.19;;;8.90;52.11
72465;BME280;60471;52.150;4.508;2023-04-03T08:58:42;103064.22;;;8.76;49.42
72465;BME280;60471;52.150;4.508;2023-04-03T09:03:49;103064.34;;;8.43;49.51
72465;BME280;60471;52.150;4.508;2023-04-03T09:06:20;103056.44;;;8.42;48.83
72465;BME280;60471;52.150;4.508;2023-04-03T09:12:17;103065.81;;;9.06;49.01
72465;BME280;60471;52.150;4.508;2023-04-03T09:15:21;103049.91;;;9.19;46.74
72465;BME280;60471;52.150;4.508;2023-04-03T09:23:26;103057.88;;;9.10;46.18
72465;BME280;60471;52.150;4.508;2023-04-03T09:26:14;103048.16;;;9.20;46.07
72465;BME280;60471;52.150;4.508;2023-04-03T09:28:44;103045.56;;;9.11;44.35
72465;BME280;60471;52.150;4.508;2023-04-03T09:31:19;103046.50;;;9.00;44.53
72465;BME280;60471;52.150;4.508;2023-04-03T09:33:53;103045.44;;;9.30;44.68
72465;BME280;60471;52.150;4.508;2023-04-03T09:36:46;103038.53;;;9.16;43.96
72465;BME280;60471;52.150;4.508;2023-04-03T09:39:21;103025.34;;;9.17;44.62
72465;BME280;60471;52.150;4.508;2023-04-03T09:46:57;103035.19;;;10.01;41.25
72465;BME280;60471;52.150;4.508;2023-04-03T09:49:24;103026.38;;;10.01;41.21
72465;BME280;60471;52.150;4.508;2023-04-03T09:51:51;103023.56;;;10.16;39.93
72465;BME280;60471;52.150;4.508;2023-04-03T09:54:31;103020.19;;;10.03;38.44
72465;BME280;60471;52.150;4.508;2023-04-03T09:57:09;103014.69;;;10.26;37.31
72465;BME280;60471;52.150;4.508;2023-04-03T09:59:57;103017.94;;;10.48;36.70
72465;BME280;60471;52.150;4.508;2023-04-03T10:02:39;103015.06;;;10.68;36.34
72465;BME280;60471;52.150;4.508;2023-04-03T10:05:32;103009.03;;;10.58;34.70
72465;BME280;60471;52.150;4.508;2023-04-03T10:10:44;102993.72;;;14.15;30.89
72465;BME280;60471;52.150;4.508;2023-04-03T10:13:18;102992.75;;;15.84;26.54
72465;BME280;60471;52.150;4.508;2023-04-03T10:15:56;102985.72;;;16.32;26.34
72465;BME280;60471;52.150;4.508;2023-04-03T10:21:35;102999.41;;;17.55;24.58
72465;BME280;60471;52.150;4.508;2023-04-03T10:24:44;102985.59;;;18.27;23.28
72465;BME280;60471;52.150;4.508;2023-04-03T10:27:32;102981.44;;;19.14;23.01
72465;BME280;60471;52.150;4.508;2023-04-03T10:36:51;102978.66;;;18.61;21.02
72465;BME280;60471;52.150;4.508;2023-04-03T10:39:39;102978.75;;;17.60;22.70
72465;BME280;60471;52.150;4.508;2023-04-03T10:42:32;102982.31;;;18.20;21.20
72465;BME280;60471;52.150;4.508;2023-04-03T10:48:07;102972.81;;;19.61;20.11
72465;BME280;60471;52.150;4.508;2023-04-03T10:50:44;102974.84;;;18.66;20.80
72465;BME280;60471;52.150;4.508;2023-04-03T10:53:34;102967.97;;;19.50;20.65
72465;BME280;60471;52.150;4.508;2023-04-03T10:56:30;102960.03;;;19.49;21.14
72465;BME280;60471;52.150;4.508;2023-04-03T10:59:21;102963.81;;;20.77;20.05
72465;BME280;60471;52.150;4.508;2023-04-03T11:05:37;102961.66;;;19.86;19.71
72465;BME280;60471;52.150;4.508;2023-04-03T11:11:20;102943.28;;;20.92;19.55
72465;BME280;60471;52.150;4.508;2023-04-03T11:14:11;102945.25;;;21.04;18.69
72465;BME280;60471;52.150;4.508;2023-04-03T11:16:50;102930.09;;;22.48;17.80
72465;BME280;60471;52.150;4.508;2023-04-03T11:19:36;102942.91;;;21.44;18.38
72465;BME280;60471;52.150;4.508;2023-04-03T11:22:25;102935.66;;;21.00;18.82
72465;BME280;60471;52.150;4.508;2023-04-03T11:27:56;102941.81;;;21.76;17.79
72465;BME280;60471;52.150;4.508;2023-04-03T11:30:43;102939.47;;;21.41;16.79
72465;BME280;60471;52.150;4.508;2023-04-03T11:36:09;102933.00;;;22.17;16.60
72465;BME280;60471;52.150;4.508;2023-04-03T11:38:46;102924.19;;;22.83;16.04
72465;BME280;60471;52.150;4.508;2023-04-03T11:41:14;102906.00;;;23.13;16.31
72465;BME280;60471;52.150;4.508;2023-04-03T11:43:55;102904.09;;;22.62;16.24
72465;BME280;60471;52.150;4.508;2023-04-03T11:47:00;102896.56;;;22.67;16.79
72465;BME280;60471;52.150;4.508;2023-04-03T11:49:54;102896.50;;;23.60;14.94
72465;BME280;60471;52.150;4.508;2023-04-03T12:05:56;102870.63;;;25.73;13.32
72465;BME280;60471;52.150;4.508;2023-04-03T12:14:23;102868.69;;;26.41;13.43
72465;BME280;60471;52.150;4.508;2023-04-03T12:19:35;102867.47;;;25.33;13.54
72465;BME280;60471;52.150;4.508;2023-04-03T12:24:30;102865.84;;;26.42;12.50
72465;BME280;60471;52.150;4.508;2023-04-03T12:27:38;102860.53;;;25.86;12.57
72465;BME280;60471;52.150;4.508;2023-04-03T12:30:18;102857.78;;;27.37;12.40
72465;BME280;60471;52.150;4.508;2023-04-03T12:33:03;102853.91;;;26.98;12.31
72465;BME280;60471;52.150;4.508;2023-04-03T12:42:09;102837.53;;;26.46;12.75
72465;BME280;60471;52.150;4.508;2023-04-03T12:45:13;102840.38;;;26.34;12.07
72465;BME280;60471;52.150;4.508;2023-04-03T12:47:48;102835.41;;;27.24;11.67
72465;BME280;60471;52.150;4.508;2023-04-03T12:50:27;102830.88;;;27.85;11.47
72465;BME280;60471;52.150;4.508;2023-04-03T12:52:57;102832.75;;;29.39;10.89
72465;BME280;60471;52.150;4.508;2023-04-03T12:55:31;102830.34;;;27.09;11.96
72465;BME280;60471;52.150;4.508;2023-04-03T12:58:23;102825.06;;;27.99;11.91
72465;BME280;60471;52.150;4.508;2023-04-03T13:01:21;102822.75;;;28.35;11.33
72465;BME280;60471;52.150;4.508;2023-04-03T13:03:56;102821.31;;;27.81;11.63
72465;BME280;60471;52.150;4.508;2023-04-03T13:06:31;102820.31;;;28.61;10.80
72465;BME280;60471;52.150;4.508;2023-04-03T13:09:03;102819.44;;;28.51;13.29
72465;BME280;60471;52.150;4.508;2023-04-03T13:11:35;102834.00;;;30.55;12.18
72465;BME280;60471;52.150;4.508;2023-04-03T13:14:13;102819.72;;;30.97;11.19
72465;BME280;60471;52.150;4.508;2023-04-03T13:17:12;102831.63;;;28.66;10.89
72465;BME280;60471;52.150;4.508;2023-04-03T13:19:41;102815.13;;;28.87;12.52
72465;BME280;60471;52.150;4.508;2023-04-03T13:22:45;102823.66;;;30.41;11.57
72465;BME280;60471;52.150;4.508;2023-04-03T13:25:23;102821.00;;;29.02;11.91
72465;BME280;60471;52.150;4.508;2023-04-03T13:27:51;102818.22;;;27.34;12.27
72465;BME280;60471;52.150;4.508;2023-04-03T13:33:00;102808.38;;;28.14;12.18
72465;BME280;60471;52.150;4.508;2023-04-03T13:35:33;102805.22;;;30.35;11.58
72465;BME280;60471;52.150;4.508;2023-04-03T13:38:24;102797.66;;;30.11;10.96
72465;BME280;60471;52.150;4.508;2023-04-03T13:40:58;102788.28;;;29.68;12.44
72465;BME280;60471;52.150;4.508;2023-04-03T13:43:35;102794.00;;;30.20;12.53
72465;BME280;60471;52.150;4.508;2023-04-03T13:53:59;102796.25;;;29.79;11.61
72465;BME280;60471;52.150;4.508;2023-04-03T13:56:35;102800.25;;;30.66;10.90
72465;BME280;60471;52.150;4.508;2023-04-03T14:04:21;102785.09;;;28.01;12.89
72465;BME280;60471;52.150;4.508;2023-04-03T14:06:50;102797.22;;;29.13;13.23
72465;BME280;60471;52.150;4.508;2023-04-03T14:09:18;102786.50;;;29.12;11.17
72465;BME280;60471;52.150;4.508;2023-04-03T14:11:47;102779.38;;;29.48;12.07
72465;BME280;60471;52.150;4.508;2023-04-03T14:14:21;102774.75;;;30.57;11.85
72465;BME280;60471;52.150;4.508;2023-04-03T14:16:54;102770.91;;;29.04;11.50
72465;BME280;60471;52.150;4.508;2023-04-03T14:19:56;102769.94;;;28.18;11.37
72465;BME280;60471;52.150;4.508;2023-04-03T14:24:47;102771.06;;;27.16;13.11
72465;BME280;60471;52.150;4.508;2023-04-03T14:29:49;102763.16;;;29.74;12.36
72465;BME280;60471;52.150;4.508;2023-04-03T14:32:19;102758.88;;;29.44;12.50
72465;BME280;60471;52.150;4.508;2023-04-03T14:34:48;102759.38;;;28.93;12.42
72465;BME280;60471;52.150;4.508;2023-04-03T14:37:18;102755.94;;;28.81;12.88
72465;BME280;60471;52.150;4.508;2023-04-03T14:39:50;102759.81;;;29.25;12.72
72465;BME280;60471;52.150;4.508;2023-04-03T14:42:22;102747.38;;;29.60;12.20
72465;BME280;60471;52.150;4.508;2023-04-03T14:44:51;102750.28;;;27.66;12.93
72465;BME280;60471;52.150;4.508;2023-04-03T14:47:23;102759.22;;;28.75;12.75
72465;BME280;60471;52.150;4.508;2023-04-03T14:49:52;102749.25;;;27.58;12.71
72465;BME280;60471;52.150;4.508;2023-04-03T14:52:27;102757.22;;;27.50;13.02
72465;BME280;60471;52.150;4.508;2023-04-03T14:54:56;102759.56;;;25.97;13.82
72465;BME280;60471;52.150;4.508;2023-04-03T14:57:25;102770.56;;;24.47;14.69
72465;BME280;60471;52.150;4.508;2023-04-03T14:59:53;102776.50;;;25.99;14.72
72465;BME280;60471;52.150;4.508;2023-04-03T15:02:32;102766.16;;;26.89;14.68
72465;BME280;60471;52.150;4.508;2023-04-03T15:05:01;102759.38;;;28.25;13.45
72465;BME280;60471;52.150;4.508;2023-04-03T15:07:32;102759.91;;;27.99;12.75